Time;durP1;ratioP1;P1;durP2;ratioP2;P2;SDS_P1;SDS_P2;PMS_P1;PMS_P2;Temp;Humidity;BMP_temperature;BMP_pressure;BME280_temperature;BME280_humidity;BME280_pressure;Samples;Min_cycle;Max_cycle;Signal;HPM_P1;HPM_P2
2022/05/18 00:00:48;;;;;;;3.23;2.90;;;;;;;;;;5068846;28;20420;-82
2022/05/18 00:03:15;;;;;;;2.90;2.63;;;;;;;;;;5068543;28;20446;-82
2022/05/18 00:05:41;;;;;;;2.80;2.43;;;;;;;;;;5070796;28;20449;-82
2022/05/18 00:08:08;;;;;;;4.20;2.70;;;;;;;;;;5067920;28;20603;-81
2022/05/18 00:10:35;;;;;;;2.70;2.50;;;;;;;;;;5073957;28;20888;-81
2022/05/18 00:13:01;;;;;;;2.33;2.07;;;;;;;;;;5078360;28;20412;-83
2022/05/18 00:15:28;;;;;;;2.80;2.50;;;;;;;;;;5070454;28;20454;-81
2022/05/18 00:17:54;;;;;;;3.00;2.37;;;;;;;;;;5068523;28;20431;-83
2022/05/18 00:20:20;;;;;;;3.77;3.47;;;;;;;;;;5068752;28;20466;-84
2022/05/18 00:22:51;;;;;;;4.10;2.83;;;;;;;;;;5065240;28;20441;-82
2022/05/18 00:25:18;;;;;;;3.30;2.77;;;;;;;;;;5077803;28;20414;-81
2022/05/18 00:27:44;;;;;;;3.00;2.70;;;;;;;;;;5078393;28;20422;-81
2022/05/18 00:30:12;;;;;;;4.23;2.67;;;;;;;;;;5071727;28;20946;-82
2022/05/18 00:32:38;;;;;;;5.40;2.60;;;;;;;;;;5068182;28;20799;-82
2022/05/18 00:35:05;;;;;;;4.47;2.60;;;;;;;;;;5078606;28;20516;-81
2022/05/18 00:37:31;;;;;;;3.30;2.50;;;;;;;;;;5065522;28;20451;-81
2022/05/18 00:39:57;;;;;;;2.70;2.50;;;;;;;;;;5067975;28;20470;-82
2022/05/18 00:42:25;;;;;;;6.47;3.40;;;;;;;;;;5068247;28;20435;-81
2022/05/18 00:44:51;;;;;;;5.37;3.67;;;;;;;;;;5070069;28;20441;-81
2022/05/18 00:47:17;;;;;;;3.13;2.83;;;;;;;;;;5076991;28;20453;-81
2022/05/18 00:49:46;;;;;;;3.10;2.90;;;;;;;;;;5079932;28;20442;-82
2022/05/18 00:52:13;;;;;;;3.70;3.00;;;;;;;;;;5078717;28;20410;-81
2022/05/18 00:54:39;;;;;;;4.22;3.50;;;;;;;;;;5077240;28;20453;-82
2022/05/18 00:57:15;;;;;;;3.50;3.10;;;;;;;;;;5076660;28;20215;-82
2022/05/18 00:59:47;;;;;;;3.83;3.27;;;;;;;;;;5075935;28;20904;-81
2022/05/18 01:02:13;;;;;;;3.07;2.70;;;;;;;;;;5067941;28;20440;-81
2022/05/18 01:04:41;;;;;;;3.50;3.15;;;;;;;;;;5068364;28;20535;-82
2022/05/18 01:07:13;;;;;;;3.03;2.70;;;;;;;;;;5075065;28;20179;-82
2022/05/18 01:09:41;;;;;;;4.90;3.00;;;;;;;;;;5080969;28;20430;-81
2022/05/18 01:12:08;;;;;;;4.73;3.53;;;;;;;;;;5080718;28;20430;-81
2022/05/18 01:14:36;;;;;;;3.60;2.80;;;;;;;;;;5071213;28;20879;-81
2022/05/18 01:17:03;;;;;;;3.90;3.10;;;;;;;;;;5089638;28;20473;-81
2022/05/18 01:19:35;;;;;;;3.20;2.70;;;;;;;;;;5071657;28;20442;-81
2022/05/18 01:22:11;;;;;;;3.67;2.85;;;;;;;;;;5080021;28;20408;-81
2022/05/18 01:24:47;;;;;;;7.05;3.15;;;;;;;;;;5072258;28;20172;-81
2022/05/18 01:27:13;;;;;;;3.72;3.42;;;;;;;;;;5071962;28;20278;-81
2022/05/18 01:29:39;;;;;;;4.03;2.70;;;;;;;;;;5074839;28;20186;-81
2022/05/18 01:32:06;;;;;;;4.78;3.28;;;;;;;;;;5083833;28;20444;-81
2022/05/18 01:34:33;;;;;;;5.28;3.35;;;;;;;;;;5067911;28;20498;-82
2022/05/18 01:36:59;;;;;;;4.68;3.10;;;;;;;;;;5071537;28;20211;-81
2022/05/18 01:39:35;;;;;;;3.33;2.80;;;;;;;;;;5073468;28;20192;-81
2022/05/18 01:42:07;;;;;;;3.38;2.70;;;;;;;;;;5072324;28;20266;-80
2022/05/18 01:44:34;;;;;;;2.95;2.70;;;;;;;;;;5070935;28;20262;-80
2022/05/18 01:47:00;;;;;;;3.85;3.17;;;;;;;;;;5069586;28;20481;-80
2022/05/18 01:49:26;;;;;;;3.30;2.73;;;;;;;;;;5068843;28;20496;-81
2022/05/18 01:51:53;;;;;;;5.57;3.10;;;;;;;;;;5071476;28;20414;-82
2022/05/18 01:54:19;;;;;;;5.95;3.50;;;;;;;;;;5081052;28;20571;-83
2022/05/18 01:56:45;;;;;;;3.10;2.80;;;;;;;;;;5079558;28;20301;-80
2022/05/18 01:59:12;;;;;;;3.65;3.03;;;;;;;;;;5084167;28;20179;-84
2022/05/18 02:01:38;;;;;;;4.35;2.92;;;;;;;;;;5081421;28;20180;-81
2022/05/18 02:04:04;;;;;;;2.83;2.50;;;;;;;;;;5069915;28;20243;-81
2022/05/18 02:06:32;;;;;;;3.58;2.58;;;;;;;;;;5071435;28;20191;-82
2022/05/18 02:08:58;;;;;;;5.65;2.78;;;;;;;;;;5073329;28;20548;-81
2022/05/18 02:11:24;;;;;;;4.65;2.80;;;;;;;;;;5079843;28;20209;-82
2022/05/18 02:13:51;;;;;;;2.70;2.10;;;;;;;;;;5082022;28;20188;-79
2022/05/18 02:16:17;;;;;;;3.88;2.30;;;;;;;;;;5069248;28;20198;-85
2022/05/18 02:18:43;;;;;;;5.15;2.83;;;;;;;;;;5071355;28;20544;-84
2022/05/18 02:21:11;;;;;;;2.30;1.87;;;;;;;;;;5070068;28;20190;-79
2022/05/18 02:23:37;;;;;;;5.57;2.47;;;;;;;;;;5070200;28;20438;-81
2022/05/18 02:26:22;;;;;;;3.95;2.28;;;;;;;;;;5081027;28;20671;-80
2022/05/18 02:28:48;;;;;;;1.90;1.80;;;;;;;;;;5065688;28;20191;-79
2022/05/18 02:31:15;;;;;;;2.97;2.00;;;;;;;;;;5069319;28;20172;-82
2022/05/18 02:33:41;;;;;;;3.28;2.38;;;;;;;;;;5070750;28;20188;-80
2022/05/18 02:36:08;;;;;;;2.50;2.30;;;;;;;;;;5071065;28;20256;-80
2022/05/18 02:38:37;;;;;;;3.92;2.58;;;;;;;;;;5071809;28;20452;-80
2022/05/18 02:41:03;;;;;;;3.05;2.38;;;;;;;;;;5068654;28;20257;-79
2022/05/18 02:43:30;;;;;;;7.78;2.50;;;;;;;;;;5066918;28;20168;-80
2022/05/18 02:46:14;;;;;;;3.72;2.47;;;;;;;;;;5081880;28;20175;-80
2022/05/18 02:48:40;;;;;;;3.35;2.05;;;;;;;;;;5091467;28;20183;-80
2022/05/18 02:51:07;;;;;;;2.08;1.80;;;;;;;;;;5075327;28;20179;-80
2022/05/18 02:53:33;;;;;;;4.63;2.10;;;;;;;;;;5079025;28;20375;-80
2022/05/18 02:56:08;;;;;;;5.15;2.05;;;;;;;;;;5071057;28;20214;-83
2022/05/18 02:58:43;;;;;;;2.03;1.85;;;;;;;;;;5066973;28;20183;-80
2022/05/18 03:01:10;;;;;;;2.15;1.90;;;;;;;;;;5080733;28;20188;-80
2022/05/18 03:03:37;;;;;;;2.63;2.00;;;;;;;;;;5070137;28;20190;-80
2022/05/18 03:06:03;;;;;;;5.85;2.35;;;;;;;;;;5079677;28;20265;-80
2022/05/18 03:08:30;;;;;;;4.30;2.10;;;;;;;;;;5070486;28;20201;-80
2022/05/18 03:10:56;;;;;;;2.08;1.90;;;;;;;;;;5067632;28;20187;-81
2022/05/18 03:13:22;;;;;;;2.10;1.90;;;;;;;;;;5066390;28;20182;-83
2022/05/18 03:15:48;;;;;;;2.63;1.63;;;;;;;;;;5082213;28;20194;-81
2022/05/18 03:18:14;;;;;;;1.40;1.30;;;;;;;;;;5073175;28;20436;-79
2022/05/18 03:23:35;;;;;;;5.88;1.77;;;;;;;;;;5068608;28;20198;-81
2022/05/18 03:26:02;;;;;;;2.83;1.52;;;;;;;;;;5080013;28;20177;-80
2022/05/18 03:28:28;;;;;;;2.15;1.13;;;;;;;;;;5081472;28;20169;-81
2022/05/18 03:30:55;;;;;;;3.00;1.80;;;;;;;;;;5067458;28;20187;-83
2022/05/18 03:33:22;;;;;;;1.30;1.20;;;;;;;;;;5078446;28;20271;-83
2022/05/18 03:35:48;;;;;;;2.25;1.30;;;;;;;;;;5075974;28;20228;-82
2022/05/18 03:38:15;;;;;;;2.85;1.77;;;;;;;;;;5066447;28;20286;-81
2022/05/18 03:40:41;;;;;;;4.50;1.20;;;;;;;;;;5078870;28;20181;-81
2022/05/18 03:43:07;;;;;;;3.63;1.00;;;;;;;;;;5069239;28;20719;-81
2022/05/18 03:45:33;;;;;;;1.20;1.10;;;;;;;;;;5069507;28;20440;-85
2022/05/18 03:47:59;;;;;;;1.55;1.45;;;;;;;;;;5069536;28;20268;-80
2022/05/18 03:50:28;;;;;;;1.35;1.20;;;;;;;;;;5074538;28;20260;-80
2022/05/18 03:52:54;;;;;;;1.77;1.20;;;;;;;;;;5066711;28;20175;-80
2022/05/18 03:55:20;;;;;;;1.20;1.10;;;;;;;;;;5079527;28;20177;-80
2022/05/18 03:57:46;;;;;;;1.83;1.20;;;;;;;;;;5070503;28;20184;-80
2022/05/18 04:00:12;;;;;;;2.75;1.15;;;;;;;;;;5073949;28;20192;-84
2022/05/18 04:02:40;;;;;;;2.10;1.40;;;;;;;;;;5077637;28;20181;-80
2022/05/18 04:05:06;;;;;;;1.63;1.00;;;;;;;;;;5066966;28;20184;-81
2022/05/18 04:07:33;;;;;;;2.95;1.20;;;;;;;;;;5072994;28;20203;-81
2022/05/18 04:09:59;;;;;;;1.30;0.98;;;;;;;;;;5068875;28;20686;-80
2022/05/18 04:12:27;;;;;;;1.65;0.90;;;;;;;;;;5076090;28;20184;-81
2022/05/18 04:14:54;;;;;;;5.15;1.52;;;;;;;;;;5074952;28;20180;-81
2022/05/18 04:17:20;;;;;;;4.47;1.42;;;;;;;;;;5069784;28;20200;-81
2022/05/18 04:19:46;;;;;;;2.70;1.10;;;;;;;;;;5064715;28;20275;-80
2022/05/18 04:22:13;;;;;;;2.45;1.23;;;;;;;;;;5077053;28;20180;-80
2022/05/18 04:24:39;;;;;;;0.90;0.90;;;;;;;;;;5069102;28;20176;-80
2022/05/18 04:27:08;;;;;;;1.40;1.00;;;;;;;;;;5068415;28;20259;-80
2022/05/18 04:29:34;;;;;;;2.20;0.95;;;;;;;;;;5070514;28;20446;-80
2022/05/18 04:32:01;;;;;;;1.27;1.10;;;;;;;;;;5066349;28;20220;-80
2022/05/18 04:34:27;;;;;;;1.70;1.20;;;;;;;;;;5064707;28;20173;-80
2022/05/18 04:36:53;;;;;;;2.35;1.40;;;;;;;;;;5067805;28;20236;-80
2022/05/18 04:39:19;;;;;;;2.47;1.13;;;;;;;;;;5074414;28;20226;-80
2022/05/18 04:41:45;;;;;;;1.95;1.00;;;;;;;;;;5077260;28;20437;-80
2022/05/18 04:44:12;;;;;;;1.23;1.10;;;;;;;;;;5079251;28;20195;-81
2022/05/18 04:46:40;;;;;;;2.20;1.00;;;;;;;;;;5064207;28;20317;-80
2022/05/18 04:49:06;;;;;;;1.00;0.90;;;;;;;;;;5067923;28;20282;-80
2022/05/18 04:51:33;;;;;;;1.80;1.00;;;;;;;;;;5075980;28;20192;-80
2022/05/18 04:53:59;;;;;;;2.25;1.20;;;;;;;;;;5079639;28;20184;-80
2022/05/18 04:56:25;;;;;;;1.83;1.23;;;;;;;;;;5078426;28;20290;-80
2022/05/18 04:58:51;;;;;;;1.20;1.10;;;;;;;;;;5065543;28;20293;-80
2022/05/18 05:01:18;;;;;;;3.45;1.00;;;;;;;;;;5081965;28;20268;-79
2022/05/18 05:03:44;;;;;;;1.98;1.10;;;;;;;;;;5080109;28;20177;-80
2022/05/18 05:06:10;;;;;;;2.63;1.15;;;;;;;;;;5068247;28;20176;-80
2022/05/18 05:08:37;;;;;;;4.32;1.30;;;;;;;;;;5068091;28;20261;-80
2022/05/18 05:11:04;;;;;;;3.35;1.08;;;;;;;;;;5082649;28;20181;-80
2022/05/18 05:13:30;;;;;;;1.33;1.10;;;;;;;;;;5082235;28;20181;-80
2022/05/18 05:16:10;;;;;;;1.30;0.90;;;;;;;;;;5078497;28;20208;-80
2022/05/18 05:18:36;;;;;;;2.13;1.10;;;;;;;;;;5081024;28;20258;-79
2022/05/18 05:21:02;;;;;;;4.65;1.98;;;;;;;;;;5076278;28;20181;-80
2022/05/18 05:23:32;;;;;;;2.33;1.27;;;;;;;;;;5076770;28;20232;-85
2022/05/18 05:25:59;;;;;;;1.33;1.20;;;;;;;;;;5078795;28;20176;-81
2022/05/18 05:28:25;;;;;;;2.78;1.55;;;;;;;;;;5077915;28;20173;-79
2022/05/18 05:30:53;;;;;;;4.60;1.30;;;;;;;;;;5067535;28;20272;-80
2022/05/18 05:33:19;;;;;;;2.28;1.10;;;;;;;;;;5074906;28;20184;-81
2022/05/18 05:35:45;;;;;;;1.73;1.10;;;;;;;;;;5070982;28;20247;-80
2022/05/18 05:38:12;;;;;;;2.47;1.17;;;;;;;;;;5075957;28;20638;-85
2022/05/18 05:40:39;;;;;;;2.05;1.20;;;;;;;;;;5080123;28;20431;-80
2022/05/18 05:43:08;;;;;;;1.60;1.13;;;;;;;;;;5067700;28;20176;-80
2022/05/18 05:45:35;;;;;;;1.95;1.20;;;;;;;;;;5075390;28;20200;-80
2022/05/18 05:48:01;;;;;;;1.60;1.00;;;;;;;;;;5074835;28;20201;-80
2022/05/18 05:50:27;;;;;;;1.30;1.05;;;;;;;;;;5065768;28;20185;-78
2022/05/18 05:52:53;;;;;;;1.50;1.13;;;;;;;;;;5070815;28;20634;-78
2022/05/18 05:55:19;;;;;;;1.30;1.00;;;;;;;;;;5071281;28;20207;-78
2022/05/18 05:57:46;;;;;;;1.95;1.20;;;;;;;;;;5081542;28;20204;-79
2022/05/18 06:00:12;;;;;;;1.35;1.10;;;;;;;;;;5080582;28;20231;-78
2022/05/18 06:02:38;;;;;;;3.53;1.40;;;;;;;;;;5074890;28;20262;-78
2022/05/18 06:05:04;;;;;;;1.80;1.25;;;;;;;;;;5068147;28;20193;-78
2022/05/18 06:07:31;;;;;;;2.60;1.30;;;;;;;;;;5081548;28;20208;-78
2022/05/18 06:09:58;;;;;;;6.32;5.32;;;;;;;;;;5070135;28;20238;-79
2022/05/18 06:12:28;;;;;;;2.55;1.20;;;;;;;;;;5076884;28;20190;-78
2022/05/18 06:14:54;;;;;;;1.52;1.08;;;;;;;;;;5071615;28;20185;-78
2022/05/18 06:17:20;;;;;;;1.63;1.10;;;;;;;;;;5079885;28;20209;-79
2022/05/18 06:19:46;;;;;;;2.80;2.00;;;;;;;;;;5073236;28;20185;-79
2022/05/18 06:22:12;;;;;;;1.20;0.80;;;;;;;;;;5076126;28;20712;-78
2022/05/18 06:24:40;;;;;;;1.30;1.10;;;;;;;;;;5082470;28;20479;-77
2022/05/18 06:27:06;;;;;;;1.60;0.90;;;;;;;;;;5074454;28;20534;-79
2022/05/18 06:29:32;;;;;;;3.00;0.80;;;;;;;;;;5072289;28;20188;-77
2022/05/18 06:31:58;;;;;;;1.55;0.90;;;;;;;;;;5071387;28;20850;-77
2022/05/18 06:34:24;;;;;;;1.83;0.98;;;;;;;;;;5081970;28;20189;-78
2022/05/18 06:36:50;;;;;;;1.23;0.75;;;;;;;;;;5076666;28;20230;-77
2022/05/18 06:39:18;;;;;;;1.45;0.80;;;;;;;;;;5072269;28;20185;-80
2022/05/18 06:41:44;;;;;;;3.25;1.05;;;;;;;;;;5068684;28;20189;-78
2022/05/18 06:44:11;;;;;;;2.28;0.90;;;;;;;;;;5074178;28;20189;-78
2022/05/18 06:46:38;;;;;;;1.45;1.10;;;;;;;;;;5079063;28;20191;-78
2022/05/18 06:49:04;;;;;;;3.42;1.15;;;;;;;;;;5069755;28;20296;-76
2022/05/18 06:51:32;;;;;;;1.40;0.82;;;;;;;;;;5070514;28;20264;-77
2022/05/18 06:53:58;;;;;;;2.35;1.05;;;;;;;;;;5078425;28;20192;-75
2022/05/18 06:56:29;;;;;;;1.23;0.90;;;;;;;;;;5070742;28;20236;-77
2022/05/18 06:58:55;;;;;;;2.25;1.23;;;;;;;;;;5075423;28;20181;-78
2022/05/18 07:01:22;;;;;;;2.08;1.05;;;;;;;;;;5077632;28;20181;-78
2022/05/18 07:03:49;;;;;;;4.53;1.00;;;;;;;;;;5076213;28;20230;-79
2022/05/18 07:06:16;;;;;;;2.05;1.20;;;;;;;;;;5082336;28;20196;-78
2022/05/18 07:08:42;;;;;;;2.40;1.15;;;;;;;;;;5078604;28;20194;-79
2022/05/18 07:11:08;;;;;;;2.45;1.25;;;;;;;;;;5080928;28;20206;-78
2022/05/18 07:13:34;;;;;;;3.87;1.17;;;;;;;;;;5077627;28;20197;-78
2022/05/18 07:16:01;;;;;;;1.20;1.10;;;;;;;;;;5069453;28;20506;-78
2022/05/18 07:18:31;;;;;;;1.05;0.90;;;;;;;;;;5069237;28;20191;-79
2022/05/18 07:20:57;;;;;;;1.58;1.35;;;;;;;;;;5073115;28;20186;-78
2022/05/18 07:23:24;;;;;;;1.88;1.10;;;;;;;;;;5071997;28;20187;-79
2022/05/18 07:25:51;;;;;;;1.55;1.30;;;;;;;;;;5066711;28;20191;-83
2022/05/18 07:28:17;;;;;;;2.43;1.37;;;;;;;;;;5081185;28;20174;-78
2022/05/18 07:30:43;;;;;;;3.03;1.20;;;;;;;;;;5070465;28;20435;-79
2022/05/18 07:33:09;;;;;;;1.20;1.10;;;;;;;;;;5069243;28;20434;-78
2022/05/18 07:35:35;;;;;;;1.38;1.25;;;;;;;;;;5068752;28;20537;-78
2022/05/18 07:38:01;;;;;;;2.30;1.30;;;;;;;;;;5080864;28;20291;-78
2022/05/18 07:40:28;;;;;;;1.43;1.10;;;;;;;;;;5073570;28;20412;-77
2022/05/18 07:42:56;;;;;;;2.73;1.20;;;;;;;;;;5071822;28;20419;-79
2022/05/18 07:45:23;;;;;;;3.03;1.40;;;;;;;;;;5067428;28;20442;-77
2022/05/18 07:47:50;;;;;;;1.63;1.10;;;;;;;;;;5070086;28;20438;-79
2022/05/18 07:50:17;;;;;;;3.60;1.30;;;;;;;;;;5076830;28;20438;-77
2022/05/18 07:52:43;;;;;;;1.13;1.03;;;;;;;;;;5075266;28;20208;-78
2022/05/18 07:55:09;;;;;;;1.92;1.40;;;;;;;;;;5080641;28;20443;-78
2022/05/18 07:57:36;;;;;;;2.47;1.17;;;;;;;;;;5072334;28;20208;-77
2022/05/18 08:00:02;;;;;;;2.20;1.20;;;;;;;;;;5073255;28;20423;-77
2022/05/18 08:02:30;;;;;;;2.63;1.20;;;;;;;;;;5074404;28;20434;-78
2022/05/18 08:04:56;;;;;;;1.73;1.20;;;;;;;;;;5077816;28;20436;-80
2022/05/18 08:07:22;;;;;;;2.17;1.30;;;;;;;;;;5066688;28;20616;-77
2022/05/18 08:15:18;;;;;;;3.10;1.40;;;;;;;;;;5068921;28;20416;-77
2022/05/18 08:17:44;;;;;;;2.33;1.60;;;;;;;;;;5069226;28;20467;-78
2022/05/18 08:20:13;;;;;;;40.83;38.57;;;;;;;;;;5080023;28;20443;-77
2022/05/18 08:22:39;;;;;;;4.63;1.60;;;;;;;;;;5066858;28;20429;-78
2022/05/18 08:25:06;;;;;;;3.83;1.60;;;;;;;;;;5099789;28;20394;-76
2022/05/18 08:27:32;;;;;;;3.97;1.57;;;;;;;;;;5078022;28;20430;-76
2022/05/18 08:30:05;;;;;;;1.77;1.30;;;;;;;;;;5074700;28;20424;-76
2022/05/18 08:32:31;;;;;;;4.70;1.30;;;;;;;;;;5070038;28;20450;-77
2022/05/18 08:34:57;;;;;;;2.53;2.00;;;;;;;;;;5079195;28;20470;-76
2022/05/18 08:37:25;;;;;;;3.10;1.30;;;;;;;;;;5068245;28;21056;-77
2022/05/18 08:39:51;;;;;;;3.70;1.40;;;;;;;;;;5068808;28;20397;-77
2022/05/18 08:42:22;;;;;;;3.63;1.70;;;;;;;;;;5068453;28;20876;-77
2022/05/18 08:44:48;;;;;;;1.60;1.40;;;;;;;;;;5067892;28;20413;-77
2022/05/18 08:47:19;;;;;;;1.67;1.57;;;;;;;;;;5067971;28;20430;-76
2022/05/18 08:49:51;;;;;;;2.00;1.03;;;;;;;;;;5063944;28;20501;-80
2022/05/18 08:52:32;;;;;;;1.67;1.20;;;;;;;;;;5067166;28;20415;-79
2022/05/18 08:55:17;;;;;;;5.37;1.30;;;;;;;;;;5067999;28;20408;-77
2022/05/18 08:57:46;;;;;;;1.27;1.10;;;;;;;;;;5068878;28;20448;-77
2022/05/18 09:00:20;;;;;;;2.00;1.00;;;;;;;;;;5068218;28;20450;-77
2022/05/18 09:02:47;;;;;;;2.17;1.47;;;;;;;;;;5069392;28;20927;-77
2022/05/18 09:05:15;;;;;;;2.90;1.53;;;;;;;;;;5079030;28;20918;-77
2022/05/18 09:08:04;;;;;;;1.30;1.20;;;;;;;;;;5063774;28;20464;-77
2022/05/18 09:10:41;;;;;;;4.80;1.30;;;;;;;;;;5074986;28;20465;-78
2022/05/18 09:13:07;;;;;;;2.73;1.10;;;;;;;;;;5067705;28;20454;-78
2022/05/18 09:15:36;;;;;;;2.93;1.77;;;;;;;;;;5068101;28;20414;-78
2022/05/18 09:18:09;;;;;;;3.63;1.57;;;;;;;;;;5070924;28;20404;-81
2022/05/18 09:20:46;;;;;;;3.77;1.60;;;;;;;;;;5076563;28;20398;-77
2022/05/18 09:23:18;;;;;;;2.90;1.50;;;;;;;;;;5077730;28;20439;-77
2022/05/18 09:25:50;;;;;;;8.40;1.70;;;;;;;;;;5063790;28;20433;-77
2022/05/18 09:28:35;;;;;;;2.80;1.40;;;;;;;;;;5078695;28;20392;-77
2022/05/18 09:31:13;;;;;;;3.13;1.40;;;;;;;;;;5071414;28;20394;-76
2022/05/18 09:33:39;;;;;;;4.17;1.43;;;;;;;;;;5080290;28;20435;-76
2022/05/18 09:36:05;;;;;;;4.53;1.77;;;;;;;;;;5080127;28;20975;-77
2022/05/18 09:38:40;;;;;;;1.43;1.33;;;;;;;;;;5080831;28;20449;-77
2022/05/18 09:41:08;;;;;;;1.83;1.53;;;;;;;;;;5069152;28;20438;-77
2022/05/18 09:44:06;;;;;;;5.60;1.60;;;;;;;;;;5083533;28;21032;-77
2022/05/18 09:46:32;;;;;;;4.13;1.20;;;;;;;;;;5060471;28;20426;-78
2022/05/18 09:49:01;;;;;;;1.40;1.30;;;;;;;;;;5044103;28;20524;-78
2022/05/18 09:51:27;;;;;;;2.33;1.50;;;;;;;;;;5058428;28;20424;-77
2022/05/18 09:53:53;;;;;;;6.60;1.97;;;;;;;;;;5060785;28;20440;-76
2022/05/18 09:56:22;;;;;;;3.77;1.60;;;;;;;;;;5059894;28;20515;-78
2022/05/18 09:58:49;;;;;;;2.10;1.50;;;;;;;;;;5060897;28;20403;-77
2022/05/18 10:09:38;;;;;;;1.60;1.50;;;;;;;;;;5061038;28;20476;-77
2022/05/18 10:12:16;;;;;;;2.67;1.40;;;;;;;;;;5059622;28;20428;-76
2022/05/18 10:14:46;;;;;;;1.70;1.27;;;;;;;;;;5044105;28;20854;-77
2022/05/18 10:17:14;;;;;;;5.60;1.90;;;;;;;;;;5060252;28;20891;-77
2022/05/18 10:19:45;;;;;;;2.43;1.60;;;;;;;;;;5062025;28;20445;-79
2022/05/18 10:22:14;;;;;;;6.17;2.23;;;;;;;;;;5061730;28;20427;-76
2022/05/18 10:24:44;;;;;;;2.00;1.60;;;;;;;;;;5067394;28;20877;-77
2022/05/18 10:27:16;;;;;;;1.93;1.50;;;;;;;;;;5074412;28;20411;-76
2022/05/18 10:29:44;;;;;;;4.80;1.80;;;;;;;;;;5079526;28;20479;-78
2022/05/18 10:32:31;;;;;;;7.30;2.00;;;;;;;;;;5082248;28;20431;-77
2022/05/18 10:34:58;;;;;;;2.80;1.67;;;;;;;;;;5067467;28;20461;-76
2022/05/18 10:37:27;;;;;;;1.60;1.27;;;;;;;;;;5080253;28;20980;-77
2022/05/18 10:40:05;;;;;;;9.10;1.90;;;;;;;;;;5070271;28;20451;-81
2022/05/18 10:42:40;;;;;;;1.53;1.40;;;;;;;;;;5077950;28;20463;-76
2022/05/18 10:45:21;;;;;;;2.07;1.90;;;;;;;;;;5075755;28;20486;-76
2022/05/18 10:47:49;;;;;;;2.70;1.80;;;;;;;;;;5070013;28;20427;-77
2022/05/18 10:50:23;;;;;;;4.13;2.00;;;;;;;;;;5069562;28;20442;-77
2022/05/18 10:52:49;;;;;;;2.10;1.50;;;;;;;;;;5066648;28;20874;-77
2022/05/18 10:55:16;;;;;;;4.27;1.70;;;;;;;;;;5069416;28;20524;-76
2022/05/18 10:57:56;;;;;;;1.40;1.13;;;;;;;;;;5079804;28;20462;-77
2022/05/18 11:00:24;;;;;;;7.93;2.00;;;;;;;;;;5072719;28;20431;-77
2022/05/18 11:03:00;;;;;;;4.90;1.80;;;;;;;;;;5072260;28;20767;-77
2022/05/18 11:05:26;;;;;;;2.43;1.50;;;;;;;;;;5079562;28;20464;-77
2022/05/18 11:07:52;;;;;;;2.50;1.53;;;;;;;;;;5066161;28;20439;-76
2022/05/18 11:10:18;;;;;;;3.27;1.83;;;;;;;;;;5067152;28;20417;-77
2022/05/18 11:12:47;;;;;;;3.07;2.23;;;;;;;;;;5079545;28;20918;-77
2022/05/18 11:15:17;;;;;;;1.80;1.33;;;;;;;;;;5073573;28;20519;-77
2022/05/18 11:17:43;;;;;;;3.13;1.73;;;;;;;;;;5071541;28;20429;-77
2022/05/18 11:20:12;;;;;;;1.67;1.57;;;;;;;;;;5067050;28;20450;-77
2022/05/18 11:22:57;;;;;;;1.50;1.40;;;;;;;;;;5080365;28;20408;-76
2022/05/18 11:25:27;;;;;;;2.70;1.67;;;;;;;;;;5081799;28;20414;-77
2022/05/18 11:28:15;;;;;;;3.43;1.63;;;;;;;;;;5069076;28;20421;-77
2022/05/18 11:30:48;;;;;;;3.80;1.50;;;;;;;;;;5079067;28;20426;-78
2022/05/18 11:33:24;;;;;;;3.00;1.67;;;;;;;;;;5072659;28;20421;-77
2022/05/18 11:35:50;;;;;;;3.97;1.87;;;;;;;;;;5069457;28;20447;-77
2022/05/18 11:38:16;;;;;;;1.83;1.30;;;;;;;;;;5069096;28;20417;-77
2022/05/18 11:40:55;;;;;;;2.63;1.80;;;;;;;;;;5065612;28;20401;-77
2022/05/18 11:43:40;;;;;;;1.30;1.20;;;;;;;;;;5077320;28;20904;-77
2022/05/18 11:46:15;;;;;;;1.53;1.43;;;;;;;;;;5069574;28;20480;-77
2022/05/18 11:48:51;;;;;;;1.50;1.40;;;;;;;;;;5073266;28;20437;-77
2022/05/18 11:51:41;;;;;;;5.40;1.80;;;;;;;;;;5074993;28;20437;-76
2022/05/18 11:54:07;;;;;;;1.50;1.40;;;;;;;;;;5077069;28;20848;-77
2022/05/18 11:56:39;;;;;;;2.73;1.63;;;;;;;;;;5077568;28;20447;-77
2022/05/18 12:01:49;;;;;;;2.27;1.37;;;;;;;;;;5066039;28;20439;-77
2022/05/18 12:04:41;;;;;;;1.90;1.10;;;;;;;;;;5065906;28;20426;-79
2022/05/18 12:07:33;;;;;;;2.40;1.50;;;;;;;;;;5046274;28;20659;-77
2022/05/18 12:10:01;;;;;;;1.50;1.40;;;;;;;;;;5001174;28;20423;-77
2022/05/18 12:12:39;;;;;;;2.33;1.60;;;;;;;;;;4984408;28;20495;-77
2022/05/18 12:15:10;;;;;;;3.13;1.70;;;;;;;;;;4991361;28;20444;-77
2022/05/18 12:17:36;;;;;;;2.70;1.53;;;;;;;;;;4990975;28;20485;-78
2022/05/18 12:20:11;;;;;;;1.70;1.50;;;;;;;;;;4982831;28;20446;-77
2022/05/18 12:22:42;;;;;;;1.40;1.30;;;;;;;;;;4982784;28;20481;-77
2022/05/18 12:25:10;;;;;;;2.93;1.60;;;;;;;;;;4982737;28;20427;-79
2022/05/18 12:27:36;;;;;;;4.67;1.60;;;;;;;;;;4982482;28;20452;-78
2022/05/18 12:30:06;;;;;;;1.20;1.00;;;;;;;;;;4982856;28;20653;-78
2022/05/18 12:32:33;;;;;;;2.10;1.30;;;;;;;;;;4982451;28;20451;-78
2022/05/18 12:35:02;;;;;;;1.77;1.67;;;;;;;;;;4982158;28;20475;-78
2022/05/18 12:37:47;;;;;;;1.83;1.73;;;;;;;;;;4983637;28;20474;-77
2022/05/18 12:40:15;;;;;;;1.50;1.10;;;;;;;;;;4986604;28;20426;-77
2022/05/18 12:42:56;;;;;;;1.47;1.37;;;;;;;;;;4983167;28;20419;-78
2022/05/18 12:45:29;;;;;;;2.30;1.43;;;;;;;;;;4986843;28;20494;-77
2022/05/18 12:48:14;;;;;;;2.00;1.00;;;;;;;;;;5066475;28;20439;-78
2022/05/18 12:50:42;;;;;;;1.87;1.20;;;;;;;;;;5067804;28;20975;-76
2022/05/18 12:53:13;;;;;;;1.17;1.10;;;;;;;;;;5074466;28;20438;-77
2022/05/18 12:55:39;;;;;;;3.17;1.10;;;;;;;;;;5064330;28;20500;-77
2022/05/18 12:58:25;;;;;;;1.80;1.30;;;;;;;;;;5081702;28;20442;-77
2022/05/18 13:00:52;;;;;;;1.50;1.20;;;;;;;;;;5078500;28;20418;-78
2022/05/18 13:03:18;;;;;;;2.13;1.37;;;;;;;;;;5074894;28;20467;-79
2022/05/18 13:05:48;;;;;;;2.10;1.60;;;;;;;;;;5076165;28;20493;-78
2022/05/18 13:08:17;;;;;;;2.20;1.30;;;;;;;;;;5080649;28;20439;-78
2022/05/18 13:11:02;;;;;;;2.40;1.50;;;;;;;;;;5068041;28;20429;-78
2022/05/18 13:13:33;;;;;;;5.47;1.80;;;;;;;;;;5080531;28;20481;-78
2022/05/18 13:16:00;;;;;;;2.83;1.80;;;;;;;;;;5071481;28;20463;-77
2022/05/18 13:18:26;;;;;;;1.90;1.27;;;;;;;;;;5073540;28;20921;-77
2022/05/18 13:20:55;;;;;;;1.30;1.20;;;;;;;;;;5075411;28;20454;-77
2022/05/18 13:23:31;;;;;;;2.60;1.43;;;;;;;;;;5082190;28;20955;-77
2022/05/18 13:26:16;;;;;;;3.90;1.43;;;;;;;;;;5072497;28;20919;-77
2022/05/18 13:28:42;;;;;;;2.53;1.40;;;;;;;;;;5084117;28;20423;-77
2022/05/18 13:31:08;;;;;;;5.70;1.60;;;;;;;;;;5079011;28;20422;-79
2022/05/18 13:33:44;;;;;;;2.37;1.27;;;;;;;;;;5072869;28;20430;-77
2022/05/18 13:36:10;;;;;;;1.73;1.50;;;;;;;;;;5071478;28;21070;-77
2022/05/18 13:38:37;;;;;;;2.90;1.30;;;;;;;;;;5072456;28;20434;-77
2022/05/18 13:41:07;;;;;;;1.90;1.20;;;;;;;;;;5083434;28;21096;-80
2022/05/18 13:43:34;;;;;;;2.70;1.33;;;;;;;;;;5068672;28;20407;-77
2022/05/18 13:46:04;;;;;;;7.30;1.40;;;;;;;;;;5071134;28;20432;-78
2022/05/18 13:48:30;;;;;;;6.23;1.60;;;;;;;;;;5075607;28;20530;-78
2022/05/18 13:50:58;;;;;;;3.90;1.30;;;;;;;;;;5077450;28;20982;-77
2022/05/18 13:53:32;;;;;;;4.23;1.33;;;;;;;;;;5069854;28;20446;-85
2022/05/18 13:56:03;;;;;;;3.67;1.47;;;;;;;;;;5082774;28;20441;-77
2022/05/18 13:58:29;;;;;;;4.80;1.90;;;;;;;;;;5081203;28;20422;-77
2022/05/18 14:01:00;;;;;;;3.53;1.30;;;;;;;;;;5073711;28;20436;-77
2022/05/18 14:03:30;;;;;;;3.73;1.70;;;;;;;;;;5079216;28;20434;-78
2022/05/18 14:05:57;;;;;;;2.40;2.00;;;;;;;;;;5076807;28;20459;-77
2022/05/18 14:08:33;;;;;;;2.27;1.77;;;;;;;;;;5069500;28;20479;-77
2022/05/18 14:11:00;;;;;;;1.67;1.20;;;;;;;;;;5082864;28;20585;-78
2022/05/18 14:13:26;;;;;;;2.77;1.43;;;;;;;;;;5067914;28;20431;-78
2022/05/18 14:15:53;;;;;;;2.43;1.40;;;;;;;;;;5073618;28;20939;-76
2022/05/18 14:18:21;;;;;;;1.30;1.10;;;;;;;;;;5077947;28;20466;-78
2022/05/18 14:20:49;;;;;;;1.50;1.00;;;;;;;;;;5074993;28;20442;-82
2022/05/18 14:23:22;;;;;;;3.07;1.23;;;;;;;;;;5082824;28;20476;-77
2022/05/18 14:25:53;;;;;;;1.27;1.13;;;;;;;;;;5069686;28;20431;-79
2022/05/18 14:28:22;;;;;;;1.40;1.30;;;;;;;;;;5068398;28;20422;-77
2022/05/18 14:30:49;;;;;;;2.40;1.20;;;;;;;;;;5080880;28;20923;-76
2022/05/18 14:33:33;;;;;;;3.73;1.43;;;;;;;;;;5073604;28;20437;-77
2022/05/18 14:36:02;;;;;;;2.07;1.30;;;;;;;;;;5076587;28;20457;-78
2022/05/18 14:38:33;;;;;;;3.93;1.30;;;;;;;;;;5077593;28;20433;-77
2022/05/18 14:41:00;;;;;;;2.30;1.50;;;;;;;;;;5073095;28;20935;-77
2022/05/18 14:43:29;;;;;;;1.70;1.20;;;;;;;;;;5081235;28;20463;-77
2022/05/18 14:46:03;;;;;;;1.93;1.53;;;;;;;;;;5082400;28;20410;-78
2022/05/18 14:48:29;;;;;;;1.20;1.10;;;;;;;;;;5078616;28;20436;-76
2022/05/18 14:51:14;;;;;;;1.67;1.37;;;;;;;;;;5075636;28;20413;-77
2022/05/18 14:53:55;;;;;;;2.00;1.53;;;;;;;;;;5070676;28;20439;-78
2022/05/18 14:56:21;;;;;;;3.00;1.40;;;;;;;;;;5075299;28;20461;-78
2022/05/18 14:58:49;;;;;;;2.40;1.47;;;;;;;;;;5067704;28;20434;-78
2022/05/18 15:01:36;;;;;;;4.77;1.50;;;;;;;;;;5080187;28;20418;-78
2022/05/18 15:04:13;;;;;;;1.40;1.10;;;;;;;;;;5068892;28;20416;-77
2022/05/18 15:06:41;;;;;;;1.80;1.13;;;;;;;;;;5072320;28;20927;-76
2022/05/18 15:09:12;;;;;;;2.23;1.20;;;;;;;;;;5070129;28;20435;-77
2022/05/18 15:11:42;;;;;;;1.50;1.20;;;;;;;;;;5072565;28;20450;-77
2022/05/18 15:14:32;;;;;;;2.23;1.30;;;;;;;;;;5081160;28;20435;-77